sensor_id;sensor_type;location;lat;lon;timestamp;temperature;humidity
23207;DHT22;11773;52.570;13.052;2022-07-29T00:00:19;18.80;99.90
23207;DHT22;11773;52.570;13.052;2022-07-29T00:02:48;18.80;99.90
23207;DHT22;11773;52.570;13.052;2022-07-29T00:05:18;18.80;99.90
23207;DHT22;11773;52.570;13.052;2022-07-29T00:07:47;18.80;99.90
23207;DHT22;11773;52.570;13.052;2022-07-29T00:10:17;18.80;99.90
23207;DHT22;11773;52.570;13.052;2022-07-29T00:12:46;18.80;99.90
23207;DHT22;11773;52.570;13.052;2022-07-29T00:15:16;18.70;99.90
23207;DHT22;11773;52.570;13.052;2022-07-29T00:17:45;18.70;99.90
23207;DHT22;11773;52.570;13.052;2022-07-29T00:20:15;18.70;99.90
23207;DHT22;11773;52.570;13.052;2022-07-29T00:22:45;18.70;99.90
23207;DHT22;11773;52.570;13.052;2022-07-29T00:25:15;18.70;99.90
23207;DHT22;11773;52.570;13.052;2022-07-29T00:27:44;18.70;99.90
23207;DHT22;11773;52.570;13.052;2022-07-29T00:30:14;18.60;99.90
23207;DHT22;11773;52.570;13.052;2022-07-29T00:32:44;18.60;99.90
23207;DHT22;11773;52.570;13.052;2022-07-29T00:35:13;18.50;99.90
23207;DHT22;11773;52.570;13.052;2022-07-29T00:38:01;18.50;99.90
23207;DHT22;11773;52.570;13.052;2022-07-29T00:40:30;18.50;99.90
23207;DHT22;11773;52.570;13.052;2022-07-29T00:43:00;18.40;99.90
23207;DHT22;11773;52.570;13.052;2022-07-29T00:45:29;18.50;99.90
23207;DHT22;11773;52.570;13.052;2022-07-29T00:47:59;18.30;99.90
23207;DHT22;11773;52.570;13.052;2022-07-29T00:50:29;18.20;99.90
23207;DHT22;11773;52.570;13.052;2022-07-29T00:52:59;18.30;99.90
23207;DHT22;11773;52.570;13.052;2022-07-29T00:55:30;18.40;99.90
23207;DHT22;11773;52.570;13.052;2022-07-29T00:58:00;18.30;99.90
23207;DHT22;11773;52.570;13.052;2022-07-29T01:00:30;18.40;99.90
23207;DHT22;11773;52.570;13.052;2022-07-29T01:02:59;18.30;99.90
23207;DHT22;11773;52.570;13.052;2022-07-29T01:05:31;18.40;99.90
23207;DHT22;11773;52.570;13.052;2022-07-29T01:08:03;18.30;99.90
23207;DHT22;11773;52.570;13.052;2022-07-29T01:10:33;18.20;99.90
23207;DHT22;11773;52.570;13.052;2022-07-29T01:13:06;18.20;99.90
23207;DHT22;11773;52.570;13.052;2022-07-29T01:15:40;18.00;99.90
23207;DHT22;11773;52.570;13.052;2022-07-29T01:18:20;18.00;99.90
23207;DHT22;11773;52.570;13.052;2022-07-29T01:24:11;17.90;99.90
23207;DHT22;11773;52.570;13.052;2022-07-29T01:27:15;17.80;99.90
23207;DHT22;11773;52.570;13.052;2022-07-29T01:29:47;17.90;99.90
23207;DHT22;11773;52.570;13.052;2022-07-29T01:35:17;17.80;99.90
23207;DHT22;11773;52.570;13.052;2022-07-29T01:38:06;17.80;99.90
23207;DHT22;11773;52.570;13.052;2022-07-29T01:40:52;17.80;99.90
23207;DHT22;11773;52.570;13.052;2022-07-29T01:43:44;17.80;99.90
23207;DHT22;11773;52.570;13.052;2022-07-29T01:46:34;17.80;99.90
23207;DHT22;11773;52.570;13.052;2022-07-29T01:49:10;17.70;99.90
23207;DHT22;11773;52.570;13.052;2022-07-29T01:51:52;17.60;99.90
23207;DHT22;11773;52.570;13.052;2022-07-29T01:54:38;17.70;99.90
23207;DHT22;11773;52.570;13.052;2022-07-29T01:57:15;17.70;99.90
23207;DHT22;11773;52.570;13.052;2022-07-29T01:59:48;17.70;99.90
23207;DHT22;11773;52.570;13.052;2022-07-29T02:02:22;17.60;99.90
23207;DHT22;11773;52.570;13.052;2022-07-29T02:04:53;17.60;99.90
23207;DHT22;11773;52.570;13.052;2022-07-29T02:07:25;17.60;99.90
23207;DHT22;11773;52.570;13.052;2022-07-29T02:09:58;17.50;99.90
23207;DHT22;11773;52.570;13.052;2022-07-29T02:12:31;17.60;99.90
23207;DHT22;11773;52.570;13.052;2022-07-29T02:15:04;17.50;99.90
23207;DHT22;11773;52.570;13.052;2022-07-29T02:17:52;17.60;99.90
23207;DHT22;11773;52.570;13.052;2022-07-29T02:20:25;17.60;99.90
23207;DHT22;11773;52.570;13.052;2022-07-29T02:22:57;17.50;99.90
23207;DHT22;11773;52.570;13.052;2022-07-29T02:25:29;17.60;99.90
23207;DHT22;11773;52.570;13.052;2022-07-29T02:28:03;17.50;99.90
23207;DHT22;11773;52.570;13.052;2022-07-29T02:30:36;17.60;99.90
23207;DHT22;11773;52.570;13.052;2022-07-29T02:33:09;17.50;99.90
23207;DHT22;11773;52.570;13.052;2022-07-29T02:35:42;17.50;99.90
23207;DHT22;11773;52.570;13.052;2022-07-29T02:38:15;17.50;99.90
23207;DHT22;11773;52.570;13.052;2022-07-29T02:41:11;17.40;99.90
23207;DHT22;11773;52.570;13.052;2022-07-29T02:43:43;17.50;99.90
23207;DHT22;11773;52.570;13.052;2022-07-29T02:46:19;17.50;99.90
23207;DHT22;11773;52.570;13.052;2022-07-29T02:49:15;17.40;99.90
23207;DHT22;11773;52.570;13.052;2022-07-29T02:52:04;17.30;99.90
23207;DHT22;11773;52.570;13.052;2022-07-29T02:55:11;17.50;99.90
23207;DHT22;11773;52.570;13.052;2022-07-29T02:58:07;17.30;99.90
23207;DHT22;11773;52.570;13.052;2022-07-29T03:00:44;17.30;99.90
23207;DHT22;11773;52.570;13.052;2022-07-29T03:03:18;17.30;99.90
23207;DHT22;11773;52.570;13.052;2022-07-29T03:05:49;17.50;99.90
23207;DHT22;11773;52.570;13.052;2022-07-29T03:08:20;17.40;99.90
23207;DHT22;11773;52.570;13.052;2022-07-29T03:10:51;17.40;99.90
23207;DHT22;11773;52.570;13.052;2022-07-29T03:13:22;17.30;99.90
23207;DHT22;11773;52.570;13.052;2022-07-29T03:15:54;17.30;99.90
23207;DHT22;11773;52.570;13.052;2022-07-29T03:18:25;17.30;99.90
23207;DHT22;11773;52.570;13.052;2022-07-29T03:20:55;17.20;99.90
23207;DHT22;11773;52.570;13.052;2022-07-29T03:23:25;17.30;99.90
23207;DHT22;11773;52.570;13.052;2022-07-29T03:25:57;17.40;99.90
23207;DHT22;11773;52.570;13.052;2022-07-29T03:28:26;17.50;99.90
23207;DHT22;11773;52.570;13.052;2022-07-29T03:30:56;17.40;99.90
23207;DHT22;11773;52.570;13.052;2022-07-29T03:33:25;17.40;99.90
23207;DHT22;11773;52.570;13.052;2022-07-29T03:35:57;17.40;99.90
23207;DHT22;11773;52.570;13.052;2022-07-29T03:38:27;17.30;99.90
23207;DHT22;11773;52.570;13.052;2022-07-29T03:41:07;17.30;99.90
23207;DHT22;11773;52.570;13.052;2022-07-29T03:43:37;17.40;99.90
23207;DHT22;11773;52.570;13.052;2022-07-29T03:46:11;17.20;99.90
23207;DHT22;11773;52.570;13.052;2022-07-29T03:48:46;17.30;99.90
23207;DHT22;11773;52.570;13.052;2022-07-29T03:51:19;17.30;99.90
23207;DHT22;11773;52.570;13.052;2022-07-29T03:53:50;17.30;99.90
23207;DHT22;11773;52.570;13.052;2022-07-29T03:56:21;17.30;99.90
23207;DHT22;11773;52.570;13.052;2022-07-29T03:58:52;17.20;99.90
23207;DHT22;11773;52.570;13.052;2022-07-29T04:01:22;17.20;99.90
23207;DHT22;11773;52.570;13.052;2022-07-29T04:03:53;17.10;99.90
23207;DHT22;11773;52.570;13.052;2022-07-29T04:06:22;17.20;99.90
23207;DHT22;11773;52.570;13.052;2022-07-29T04:08:53;17.20;99.90
23207;DHT22;11773;52.570;13.052;2022-07-29T04:11:22;17.20;99.90
23207;DHT22;11773;52.570;13.052;2022-07-29T04:13:52;17.20;99.90
23207;DHT22;11773;52.570;13.052;2022-07-29T04:16:21;17.20;99.90
23207;DHT22;11773;52.570;13.052;2022-07-29T04:18:51;17.10;99.90
23207;DHT22;11773;52.570;13.052;2022-07-29T04:21:20;17.20;99.90
23207;DHT22;11773;52.570;13.052;2022-07-29T04:23:50;17.30;99.90
23207;DHT22;11773;52.570;13.052;2022-07-29T04:26:20;17.30;99.90
23207;DHT22;11773;52.570;13.052;2022-07-29T04:28:50;17.40;99.90
23207;DHT22;11773;52.570;13.052;2022-07-29T04:31:19;17.30;99.90
23207;DHT22;11773;52.570;13.052;2022-07-29T04:33:51;17.40;99.90
23207;DHT22;11773;52.570;13.052;2022-07-29T04:36:20;17.40;99.90
23207;DHT22;11773;52.570;13.052;2022-07-29T04:38:51;17.40;99.90
23207;DHT22;11773;52.570;13.052;2022-07-29T04:41:21;17.50;99.90
23207;DHT22;11773;52.570;13.052;2022-07-29T04:43:52;17.60;99.90
23207;DHT22;11773;52.570;13.052;2022-07-29T04:46:24;17.50;99.90
23207;DHT22;11773;52.570;13.052;2022-07-29T04:48:53;17.50;99.90
23207;DHT22;11773;52.570;13.052;2022-07-29T04:51:23;17.60;99.90
23207;DHT22;11773;52.570;13.052;2022-07-29T04:53:52;17.70;99.90
23207;DHT22;11773;52.570;13.052;2022-07-29T04:56:22;17.70;99.90
23207;DHT22;11773;52.570;13.052;2022-07-29T04:58:51;17.80;99.90
23207;DHT22;11773;52.570;13.052;2022-07-29T05:01:21;17.90;99.90
23207;DHT22;11773;52.570;13.052;2022-07-29T05:03:51;17.90;99.90
23207;DHT22;11773;52.570;13.052;2022-07-29T05:06:22;17.90;99.90
23207;DHT22;11773;52.570;13.052;2022-07-29T05:08:51;17.90;99.90
23207;DHT22;11773;52.570;13.052;2022-07-29T05:11:21;17.90;99.90
23207;DHT22;11773;52.570;13.052;2022-07-29T05:13:52;17.90;99.90
23207;DHT22;11773;52.570;13.052;2022-07-29T05:16:22;17.80;99.90
23207;DHT22;11773;52.570;13.052;2022-07-29T05:18:51;17.80;99.90
23207;DHT22;11773;52.570;13.052;2022-07-29T05:21:21;18.00;99.90
23207;DHT22;11773;52.570;13.052;2022-07-29T05:23:50;18.10;99.90
23207;DHT22;11773;52.570;13.052;2022-07-29T05:26:20;18.00;99.90
23207;DHT22;11773;52.570;13.052;2022-07-29T05:28:50;18.10;99.90
23207;DHT22;11773;52.570;13.052;2022-07-29T05:31:19;18.20;99.90
23207;DHT22;11773;52.570;13.052;2022-07-29T05:33:49;18.20;99.90
23207;DHT22;11773;52.570;13.052;2022-07-29T05:36:19;18.10;99.90
23207;DHT22;11773;52.570;13.052;2022-07-29T05:38:48;18.10;99.90
23207;DHT22;11773;52.570;13.052;2022-07-29T05:41:19;18.20;99.90
23207;DHT22;11773;52.570;13.052;2022-07-29T05:43:49;18.20;99.90
23207;DHT22;11773;52.570;13.052;2022-07-29T05:46:18;18.20;99.90
23207;DHT22;11773;52.570;13.052;2022-07-29T05:48:48;18.30;99.90
23207;DHT22;11773;52.570;13.052;2022-07-29T05:51:17;18.20;99.90
23207;DHT22;11773;52.570;13.052;2022-07-29T05:53:47;18.30;99.90
23207;DHT22;11773;52.570;13.052;2022-07-29T05:56:16;18.70;99.90
23207;DHT22;11773;52.570;13.052;2022-07-29T05:58:46;18.80;99.90
23207;DHT22;11773;52.570;13.052;2022-07-29T06:01:15;19.00;99.90
23207;DHT22;11773;52.570;13.052;2022-07-29T06:03:45;19.00;99.90
23207;DHT22;11773;52.570;13.052;2022-07-29T06:06:15;18.90;99.90
23207;DHT22;11773;52.570;13.052;2022-07-29T06:08:44;18.90;99.90
23207;DHT22;11773;52.570;13.052;2022-07-29T06:11:14;19.00;99.90
23207;DHT22;11773;52.570;13.052;2022-07-29T06:13:43;18.90;99.90
23207;DHT22;11773;52.570;13.052;2022-07-29T06:16:13;18.80;99.90
23207;DHT22;11773;52.570;13.052;2022-07-29T06:18:44;18.90;99.90
23207;DHT22;11773;52.570;13.052;2022-07-29T06:21:13;18.90;99.90
23207;DHT22;11773;52.570;13.052;2022-07-29T06:23:44;18.90;99.90
23207;DHT22;11773;52.570;13.052;2022-07-29T06:26:14;18.90;99.90
23207;DHT22;11773;52.570;13.052;2022-07-29T06:28:43;19.10;99.90
23207;DHT22;11773;52.570;13.052;2022-07-29T06:31:13;19.00;99.90
23207;DHT22;11773;52.570;13.052;2022-07-29T06:33:43;19.20;99.90
23207;DHT22;11773;52.570;13.052;2022-07-29T06:36:12;19.20;99.90
23207;DHT22;11773;52.570;13.052;2022-07-29T06:38:41;19.30;99.90
23207;DHT22;11773;52.570;13.052;2022-07-29T06:41:13;19.40;99.90
23207;DHT22;11773;52.570;13.052;2022-07-29T06:43:44;19.60;99.90
23207;DHT22;11773;52.570;13.052;2022-07-29T06:46:17;19.60;99.90
23207;DHT22;11773;52.570;13.052;2022-07-29T06:48:49;19.80;99.90
23207;DHT22;11773;52.570;13.052;2022-07-29T06:51:21;19.90;99.90
23207;DHT22;11773;52.570;13.052;2022-07-29T06:53:52;20.40;99.90
23207;DHT22;11773;52.570;13.052;2022-07-29T06:56:23;20.50;99.90
23207;DHT22;11773;52.570;13.052;2022-07-29T06:58:53;20.40;99.90
23207;DHT22;11773;52.570;13.052;2022-07-29T07:01:22;20.30;99.90
23207;DHT22;11773;52.570;13.052;2022-07-29T07:03:52;20.50;99.90
23207;DHT22;11773;52.570;13.052;2022-07-29T07:06:22;20.80;99.90
23207;DHT22;11773;52.570;13.052;2022-07-29T07:08:51;21.20;99.90
23207;DHT22;11773;52.570;13.052;2022-07-29T07:11:21;21.50;99.90
23207;DHT22;11773;52.570;13.052;2022-07-29T07:13:50;21.90;99.90
23207;DHT22;11773;52.570;13.052;2022-07-29T07:16:20;22.30;99.90
23207;DHT22;11773;52.570;13.052;2022-07-29T07:18:50;22.50;99.90
23207;DHT22;11773;52.570;13.052;2022-07-29T07:21:19;22.40;99.90
23207;DHT22;11773;52.570;13.052;2022-07-29T07:23:49;22.70;99.90
23207;DHT22;11773;52.570;13.052;2022-07-29T07:26:18;22.60;99.90
23207;DHT22;11773;52.570;13.052;2022-07-29T07:28:48;22.60;99.90
23207;DHT22;11773;52.570;13.052;2022-07-29T07:31:17;22.90;99.90
23207;DHT22;11773;52.570;13.052;2022-07-29T07:33:47;23.30;99.90
23207;DHT22;11773;52.570;13.052;2022-07-29T07:36:17;23.50;99.90
23207;DHT22;11773;52.570;13.052;2022-07-29T07:38:46;23.70;99.90
23207;DHT22;11773;52.570;13.052;2022-07-29T07:41:16;23.90;99.90
23207;DHT22;11773;52.570;13.052;2022-07-29T07:43:45;24.40;99.90
23207;DHT22;11773;52.570;13.052;2022-07-29T07:46:15;24.50;99.90
23207;DHT22;11773;52.570;13.052;2022-07-29T07:48:45;24.80;99.90
23207;DHT22;11773;52.570;13.052;2022-07-29T07:51:14;24.90;99.40
23207;DHT22;11773;52.570;13.052;2022-07-29T07:53:44;25.10;99.40
23207;DHT22;11773;52.570;13.052;2022-07-29T07:56:16;24.90;99.20
23207;DHT22;11773;52.570;13.052;2022-07-29T07:58:45;24.80;99.00
23207;DHT22;11773;52.570;13.052;2022-07-29T08:01:15;24.80;99.00
23207;DHT22;11773;52.570;13.052;2022-07-29T08:03:46;25.10;98.50
23207;DHT22;11773;52.570;13.052;2022-07-29T08:06:16;25.50;98.90
23207;DHT22;11773;52.570;13.052;2022-07-29T08:08:46;25.60;99.10
23207;DHT22;11773;52.570;13.052;2022-07-29T08:11:15;25.60;98.40
23207;DHT22;11773;52.570;13.052;2022-07-29T08:13:45;25.50;98.40
23207;DHT22;11773;52.570;13.052;2022-07-29T08:16:15;25.50;98.00
23207;DHT22;11773;52.570;13.052;2022-07-29T08:18:45;25.80;98.50
23207;DHT22;11773;52.570;13.052;2022-07-29T08:21:15;26.00;97.90
23207;DHT22;11773;52.570;13.052;2022-07-29T08:23:45;25.90;97.40
23207;DHT22;11773;52.570;13.052;2022-07-29T08:26:19;25.90;97.30
23207;DHT22;11773;52.570;13.052;2022-07-29T08:28:50;25.90;97.20
23207;DHT22;11773;52.570;13.052;2022-07-29T08:31:19;26.00;97.40
23207;DHT22;11773;52.570;13.052;2022-07-29T08:33:49;26.20;97.50
23207;DHT22;11773;52.570;13.052;2022-07-29T08:36:18;26.20;96.80
23207;DHT22;11773;52.570;13.052;2022-07-29T08:38:48;26.10;96.60
23207;DHT22;11773;52.570;13.052;2022-07-29T08:41:19;26.30;96.40
23207;DHT22;11773;52.570;13.052;2022-07-29T08:43:50;26.50;96.40
23207;DHT22;11773;52.570;13.052;2022-07-29T08:46:20;26.50;95.80
23207;DHT22;11773;52.570;13.052;2022-07-29T08:48:50;26.50;94.80
23207;DHT22;11773;52.570;13.052;2022-07-29T08:51:21;26.80;95.90
23207;DHT22;11773;52.570;13.052;2022-07-29T08:53:51;26.90;94.30
23207;DHT22;11773;52.570;13.052;2022-07-29T08:56:21;26.90;95.00
23207;DHT22;11773;52.570;13.052;2022-07-29T08:58:51;26.90;94.80
23207;DHT22;11773;52.570;13.052;2022-07-29T09:01:23;26.80;94.50
23207;DHT22;11773;52.570;13.052;2022-07-29T09:03:58;26.90;93.80
23207;DHT22;11773;52.570;13.052;2022-07-29T09:06:32;27.00;94.20
23207;DHT22;11773;52.570;13.052;2022-07-29T09:09:04;27.20;94.10
23207;DHT22;11773;52.570;13.052;2022-07-29T09:11:35;27.40;94.10
23207;DHT22;11773;52.570;13.052;2022-07-29T09:14:05;27.40;94.40
23207;DHT22;11773;52.570;13.052;2022-07-29T09:16:46;27.40;93.80
23207;DHT22;11773;52.570;13.052;2022-07-29T09:19:27;27.70;92.80
23207;DHT22;11773;52.570;13.052;2022-07-29T09:22:00;27.80;92.40
23207;DHT22;11773;52.570;13.052;2022-07-29T09:24:43;28.20;92.90
23207;DHT22;11773;52.570;13.052;2022-07-29T09:27:22;28.10;91.90
23207;DHT22;11773;52.570;13.052;2022-07-29T09:29:58;28.30;92.50
23207;DHT22;11773;52.570;13.052;2022-07-29T09:32:31;28.20;92.10
23207;DHT22;11773;52.570;13.052;2022-07-29T09:35:21;28.30;91.80
23207;DHT22;11773;52.570;13.052;2022-07-29T09:37:52;28.30;91.90
23207;DHT22;11773;52.570;13.052;2022-07-29T09:40:25;28.20;90.80
23207;DHT22;11773;52.570;13.052;2022-07-29T09:42:55;28.30;91.10
23207;DHT22;11773;52.570;13.052;2022-07-29T09:45:33;28.20;90.50
23207;DHT22;11773;52.570;13.052;2022-07-29T09:48:20;28.10;90.30
23207;DHT22;11773;52.570;13.052;2022-07-29T09:50:53;28.00;90.90
23207;DHT22;11773;52.570;13.052;2022-07-29T09:53:37;28.10;89.20
23207;DHT22;11773;52.570;13.052;2022-07-29T09:56:07;28.20;89.00
23207;DHT22;11773;52.570;13.052;2022-07-29T09:58:38;28.20;88.30
23207;DHT22;11773;52.570;13.052;2022-07-29T10:01:07;28.30;88.20
23207;DHT22;11773;52.570;13.052;2022-07-29T10:03:53;28.30;88.10
23207;DHT22;11773;52.570;13.052;2022-07-29T10:06:22;28.00;86.40
23207;DHT22;11773;52.570;13.052;2022-07-29T10:08:52;28.00;87.90
23207;DHT22;11773;52.570;13.052;2022-07-29T10:11:21;27.80;87.40
23207;DHT22;11773;52.570;13.052;2022-07-29T10:13:53;27.80;87.90
23207;DHT22;11773;52.570;13.052;2022-07-29T10:16:22;27.60;87.70
23207;DHT22;11773;52.570;13.052;2022-07-29T10:18:54;27.50;87.70
23207;DHT22;11773;52.570;13.052;2022-07-29T10:21:25;27.60;89.50
23207;DHT22;11773;52.570;13.052;2022-07-29T10:23:57;27.60;87.50
23207;DHT22;11773;52.570;13.052;2022-07-29T10:26:29;27.70;89.10
23207;DHT22;11773;52.570;13.052;2022-07-29T10:29:00;27.60;86.30
23207;DHT22;11773;52.570;13.052;2022-07-29T10:31:35;27.40;86.00
23207;DHT22;11773;52.570;13.052;2022-07-29T10:34:20;27.40;85.10
23207;DHT22;11773;52.570;13.052;2022-07-29T10:37:23;27.40;87.80
23207;DHT22;11773;52.570;13.052;2022-07-29T10:40:18;27.50;88.50
23207;DHT22;11773;52.570;13.052;2022-07-29T10:43:35;27.50;88.30
23207;DHT22;11773;52.570;13.052;2022-07-29T10:46:03;27.40;86.70
23207;DHT22;11773;52.570;13.052;2022-07-29T10:48:34;27.50;88.30
23207;DHT22;11773;52.570;13.052;2022-07-29T10:51:05;27.60;88.40
23207;DHT22;11773;52.570;13.052;2022-07-29T10:53:51;27.80;88.30
23207;DHT22;11773;52.570;13.052;2022-07-29T10:56:32;27.80;87.30
23207;DHT22;11773;52.570;13.052;2022-07-29T11:01:55;27.80;88.60
23207;DHT22;11773;52.570;13.052;2022-07-29T11:04:58;27.90;88.00
23207;DHT22;11773;52.570;13.052;2022-07-29T11:07:19;28.00;90.10
23207;DHT22;11773;52.570;13.052;2022-07-29T11:12:47;28.10;87.20
23207;DHT22;11773;52.570;13.052;2022-07-29T11:15:22;28.30;86.30
23207;DHT22;11773;52.570;13.052;2022-07-29T11:20:43;28.60;86.90
23207;DHT22;11773;52.570;13.052;2022-07-29T11:23:32;28.50;86.00
23207;DHT22;11773;52.570;13.052;2022-07-29T11:29:13;28.30;86.40
23207;DHT22;11773;52.570;13.052;2022-07-29T11:31:41;28.20;85.90
23207;DHT22;11773;52.570;13.052;2022-07-29T11:34:25;28.10;85.70
23207;DHT22;11773;52.570;13.052;2022-07-29T11:44:59;28.80;88.80
23207;DHT22;11773;52.570;13.052;2022-07-29T11:47:41;28.90;85.60
23207;DHT22;11773;52.570;13.052;2022-07-29T11:50:26;29.20;85.50
23207;DHT22;11773;52.570;13.052;2022-07-29T11:52:52;29.40;86.20
23207;DHT22;11773;52.570;13.052;2022-07-29T11:55:24;29.50;85.90
23207;DHT22;11773;52.570;13.052;2022-07-29T11:57:58;29.40;85.30
23207;DHT22;11773;52.570;13.052;2022-07-29T12:00:32;29.60;86.90
23207;DHT22;11773;52.570;13.052;2022-07-29T12:03:07;29.40;84.70
23207;DHT22;11773;52.570;13.052;2022-07-29T12:05:43;29.30;85.00
23207;DHT22;11773;52.570;13.052;2022-07-29T12:08:17;29.00;84.10
23207;DHT22;11773;52.570;13.052;2022-07-29T12:10:51;28.90;83.10
23207;DHT22;11773;52.570;13.052;2022-07-29T12:13:21;29.10;85.90
23207;DHT22;11773;52.570;13.052;2022-07-29T12:15:55;29.20;86.50
23207;DHT22;11773;52.570;13.052;2022-07-29T12:18:27;29.40;84.60
23207;DHT22;11773;52.570;13.052;2022-07-29T12:21:02;29.50;86.40
23207;DHT22;11773;52.570;13.052;2022-07-29T12:23:32;29.60;85.70
23207;DHT22;11773;52.570;13.052;2022-07-29T12:26:06;29.40;85.60
23207;DHT22;11773;52.570;13.052;2022-07-29T12:28:38;29.20;84.10
23207;DHT22;11773;52.570;13.052;2022-07-29T12:31:18;29.20;87.00
23207;DHT22;11773;52.570;13.052;2022-07-29T12:33:51;29.40;86.40
23207;DHT22;11773;52.570;13.052;2022-07-29T12:36:23;29.40;87.70
23207;DHT22;11773;52.570;13.052;2022-07-29T12:38:52;29.40;87.10
23207;DHT22;11773;52.570;13.052;2022-07-29T12:41:22;29.70;86.70
23207;DHT22;11773;52.570;13.052;2022-07-29T12:43:53;29.60;86.30
23207;DHT22;11773;52.570;13.052;2022-07-29T12:46:23;29.50;85.60
23207;DHT22;11773;52.570;13.052;2022-07-29T12:51:34;29.70;87.00
23207;DHT22;11773;52.570;13.052;2022-07-29T12:54:07;29.60;86.90
23207;DHT22;11773;52.570;13.052;2022-07-29T12:56:45;29.50;85.80
23207;DHT22;11773;52.570;13.052;2022-07-29T12:59:19;29.70;87.50
23207;DHT22;11773;52.570;13.052;2022-07-29T13:01:51;29.70;86.70
23207;DHT22;11773;52.570;13.052;2022-07-29T13:04:34;29.50;87.50
23207;DHT22;11773;52.570;13.052;2022-07-29T13:07:04;29.40;86.80
23207;DHT22;11773;52.570;13.052;2022-07-29T13:09:41;29.50;88.20
23207;DHT22;11773;52.570;13.052;2022-07-29T13:12:14;29.80;88.40
23207;DHT22;11773;52.570;13.052;2022-07-29T13:14:45;29.90;87.60
23207;DHT22;11773;52.570;13.052;2022-07-29T13:17:18;29.60;88.50
23207;DHT22;11773;52.570;13.052;2022-07-29T13:20:09;29.70;87.80
23207;DHT22;11773;52.570;13.052;2022-07-29T13:22:42;29.70;87.50
23207;DHT22;11773;52.570;13.052;2022-07-29T13:25:11;29.70;88.30
23207;DHT22;11773;52.570;13.052;2022-07-29T13:27:41;29.80;88.80
23207;DHT22;11773;52.570;13.052;2022-07-29T13:30:12;29.90;89.20
23207;DHT22;11773;52.570;13.052;2022-07-29T13:32:42;29.80;88.20
23207;DHT22;11773;52.570;13.052;2022-07-29T13:35:12;29.80;87.70
23207;DHT22;11773;52.570;13.052;2022-07-29T13:37:41;29.80;87.10
23207;DHT22;11773;52.570;13.052;2022-07-29T13:40:11;29.80;89.10
23207;DHT22;11773;52.570;13.052;2022-07-29T13:42:42;29.80;88.00
23207;DHT22;11773;52.570;13.052;2022-07-29T13:45:13;29.80;87.60
23207;DHT22;11773;52.570;13.052;2022-07-29T13:47:43;29.70;88.40
23207;DHT22;11773;52.570;13.052;2022-07-29T13:50:14;29.70;88.50
23207;DHT22;11773;52.570;13.052;2022-07-29T13:52:43;29.80;89.30
23207;DHT22;11773;52.570;13.052;2022-07-29T13:55:15;29.90;87.50
23207;DHT22;11773;52.570;13.052;2022-07-29T13:57:44;30.00;90.00
23207;DHT22;11773;52.570;13.052;2022-07-29T14:00:15;30.10;88.30
23207;DHT22;11773;52.570;13.052;2022-07-29T14:02:46;29.80;88.10
23207;DHT22;11773;52.570;13.052;2022-07-29T14:05:15;29.80;88.60
23207;DHT22;11773;52.570;13.052;2022-07-29T14:07:45;29.80;88.00
23207;DHT22;11773;52.570;13.052;2022-07-29T14:10:14;29.80;88.60
23207;DHT22;11773;52.570;13.052;2022-07-29T14:12:45;29.70;88.10
23207;DHT22;11773;52.570;13.052;2022-07-29T14:15:15;29.60;88.00
23207;DHT22;11773;52.570;13.052;2022-07-29T14:17:44;29.80;89.10
23207;DHT22;11773;52.570;13.052;2022-07-29T14:20:14;29.80;89.50
23207;DHT22;11773;52.570;13.052;2022-07-29T14:22:44;29.90;88.10
23207;DHT22;11773;52.570;13.052;2022-07-29T14:25:13;29.70;88.10
23207;DHT22;11773;52.570;13.052;2022-07-29T14:27:43;29.90;89.70
23207;DHT22;11773;52.570;13.052;2022-07-29T14:30:13;29.80;86.20
23207;DHT22;11773;52.570;13.052;2022-07-29T14:32:44;30.10;88.70
23207;DHT22;11773;52.570;13.052;2022-07-29T14:35:13;29.80;87.20
23207;DHT22;11773;52.570;13.052;2022-07-29T14:37:43;29.70;87.40
23207;DHT22;11773;52.570;13.052;2022-07-29T14:40:12;29.40;87.50
23207;DHT22;11773;52.570;13.052;2022-07-29T14:42:42;29.60;88.10
23207;DHT22;11773;52.570;13.052;2022-07-29T14:45:11;29.90;89.40
23207;DHT22;11773;52.570;13.052;2022-07-29T14:47:41;30.00;87.90
23207;DHT22;11773;52.570;13.052;2022-07-29T14:50:11;30.10;89.40
23207;DHT22;11773;52.570;13.052;2022-07-29T14:52:41;30.10;87.50
23207;DHT22;11773;52.570;13.052;2022-07-29T14:55:10;30.00;89.10
23207;DHT22;11773;52.570;13.052;2022-07-29T14:57:42;30.00;84.60
23207;DHT22;11773;52.570;13.052;2022-07-29T15:00:11;29.90;87.70
23207;DHT22;11773;52.570;13.052;2022-07-29T15:02:41;29.80;86.40
23207;DHT22;11773;52.570;13.052;2022-07-29T15:05:12;29.90;88.10
23207;DHT22;11773;52.570;13.052;2022-07-29T15:07:42;30.00;89.20
23207;DHT22;11773;52.570;13.052;2022-07-29T15:10:11;29.90;88.80
23207;DHT22;11773;52.570;13.052;2022-07-29T15:12:42;29.90;88.60
23207;DHT22;11773;52.570;13.052;2022-07-29T15:15:11;29.90;86.30
23207;DHT22;11773;52.570;13.052;2022-07-29T15:17:41;29.80;86.70
23207;DHT22;11773;52.570;13.052;2022-07-29T15:20:10;29.80;88.60
23207;DHT22;11773;52.570;13.052;2022-07-29T15:22:40;29.80;84.50
23207;DHT22;11773;52.570;13.052;2022-07-29T15:25:10;29.90;84.50
23207;DHT22;11773;52.570;13.052;2022-07-29T15:27:40;29.90;86.90
23207;DHT22;11773;52.570;13.052;2022-07-29T15:30:11;29.70;85.30
23207;DHT22;11773;52.570;13.052;2022-07-29T15:32:44;29.80;86.60
23207;DHT22;11773;52.570;13.052;2022-07-29T15:35:14;29.70;89.10
23207;DHT22;11773;52.570;13.052;2022-07-29T15:37:44;29.50;90.20
23207;DHT22;11773;52.570;13.052;2022-07-29T15:40:15;29.60;90.00
23207;DHT22;11773;52.570;13.052;2022-07-29T15:42:45;29.60;90.30
23207;DHT22;11773;52.570;13.052;2022-07-29T15:45:14;29.40;89.70
23207;DHT22;11773;52.570;13.052;2022-07-29T15:47:44;29.60;89.00
23207;DHT22;11773;52.570;13.052;2022-07-29T15:50:13;29.60;90.30
23207;DHT22;11773;52.570;13.052;2022-07-29T15:52:43;29.60;90.00
23207;DHT22;11773;52.570;13.052;2022-07-29T15:55:13;29.50;89.10
23207;DHT22;11773;52.570;13.052;2022-07-29T15:57:43;29.50;89.40
23207;DHT22;11773;52.570;13.052;2022-07-29T16:00:12;29.60;90.40
23207;DHT22;11773;52.570;13.052;2022-07-29T16:02:44;29.60;90.20
23207;DHT22;11773;52.570;13.052;2022-07-29T16:05:13;29.60;90.00
23207;DHT22;11773;52.570;13.052;2022-07-29T16:07:43;29.60;90.00
23207;DHT22;11773;52.570;13.052;2022-07-29T16:10:12;29.60;89.10
23207;DHT22;11773;52.570;13.052;2022-07-29T16:12:43;29.50;89.40
23207;DHT22;11773;52.570;13.052;2022-07-29T16:15:12;29.40;88.40